Time;durP1;ratioP1;P1;durP2;ratioP2;P2;SDS_P1;SDS_P2;PMS_P1;PMS_P2;Temp;Humidity;BMP_temperature;BMP_pressure;BME280_temperature;BME280_humidity;BME280_pressure;Samples;Min_cycle;Max_cycle;Signal;HPM_P1;HPM_P2
2022/09/21 00:00:18;;;;;;;5.35;3.42;;;10.70;99.90;;;;;;3058350;19;20082;-73
2022/09/21 00:01:22;;;;;;;;;;;10.30;99.90;;;;;;3059116;19;20043;-73
2022/09/21 00:02:24;;;;;;;5.25;2.88;;;10.40;99.90;;;;;;3058252;19;19919;-73
2022/09/21 00:03:28;;;;;;;5.70;2.78;;;10.30;99.90;;;;;;3059225;19;20011;-74
2022/09/21 00:04:35;;;;;;;6.47;3.10;;;10.30;99.90;;;;;;3057901;19;20348;-74
2022/09/21 00:05:37;;;;;;;7.82;3.10;;;10.40;99.90;;;;;;3058314;19;20048;-73
2022/09/21 00:06:41;;;;;;;;;;;10.30;99.90;;;;;;3059937;19;20078;-73
2022/09/21 00:07:42;;;;;;;8.23;3.20;;;10.40;99.90;;;;;;3058849;19;20006;-75
2022/09/21 00:08:48;;;;;;;6.90;3.65;;;10.20;99.90;;;;;;3058241;19;20015;-74
2022/09/21 00:09:49;;;;;;;8.30;3.40;;;10.20;99.90;;;;;;3058671;19;20141;-74
2022/09/21 00:10:53;;;;;;;7.88;4.00;;;10.20;99.90;;;;;;3058281;19;20411;-74
2022/09/21 00:11:58;;;;;;;5.82;3.60;;;10.40;99.90;;;;;;3059685;19;20022;-74
2022/09/21 00:13:01;;;;;;;8.77;3.80;;;10.60;99.90;;;;;;3057001;19;20506;-74
2022/09/21 00:14:09;;;;;;;9.00;3.83;;;10.30;99.90;;;;;;3057653;19;20018;-74
2022/09/21 00:15:11;;;;;;;8.02;3.80;;;10.40;99.90;;;;;;3057459;19;20014;-74
2022/09/21 00:16:17;;;;;;;7.20;3.45;;;10.30;99.90;;;;;;3058165;19;20439;-74
2022/09/21 00:17:19;;;;;;;9.95;4.10;;;10.30;99.90;;;;;;3057095;19;20010;-75
2022/09/21 00:18:24;;;;;;;10.13;4.38;;;10.20;99.90;;;;;;3058011;19;20015;-74
2022/09/21 00:19:28;;;;;;;8.25;3.90;;;10.00;99.90;;;;;;3057934;19;20018;-74
2022/09/21 00:20:32;;;;;;;6.72;3.65;;;10.20;99.90;;;;;;3058545;19;20586;-74
2022/09/21 00:21:37;;;;;;;7.22;3.55;;;10.30;99.90;;;;;;3058012;19;20369;-74
2022/09/21 00:22:40;;;;;;;6.10;3.38;;;10.10;99.90;;;;;;3058048;19;20052;-74
2022/09/21 00:23:45;;;;;;;8.80;3.47;;;10.30;99.90;;;;;;3058126;19;20006;-74
2022/09/21 00:24:47;;;;;;;8.15;3.33;;;10.30;99.90;;;;;;3058846;19;20025;-74
2022/09/21 00:25:51;;;;;;;4.18;3.15;;;10.10;99.90;;;;;;3057553;19;20018;-74
2022/09/21 00:26:55;;;;;;;9.15;3.30;;;9.80;99.90;;;;;;3057037;19;20471;-73
2022/09/21 00:27:57;;;;;;;8.05;3.55;;;10.10;99.90;;;;;;3059335;19;20010;-74
2022/09/21 00:29:03;;;;;;;7.65;3.60;;;10.10;99.90;;;;;;3057112;19;20471;-74
2022/09/21 00:30:06;;;;;;;10.05;4.03;;;9.70;99.90;;;;;;3057839;19;20027;-74
2022/09/21 00:31:13;;;;;;;9.88;4.80;;;9.80;99.90;;;;;;3059040;19;20021;-74
2022/09/21 00:32:15;;;;;;;8.98;5.03;;;10.20;99.90;;;;;;3057864;19;20019;-74
2022/09/21 00:33:20;;;;;;;8.95;4.47;;;10.10;99.90;;;;;;3055275;19;20002;-74
2022/09/21 00:34:23;;;;;;;9.77;4.47;;;10.00;99.90;;;;;;3059788;19;20023;-74
2022/09/21 00:35:27;;;;;;;7.05;3.67;;;10.10;99.90;;;;;;3058087;19;20010;-75
2022/09/21 00:36:32;;;;;;;7.95;4.07;;;10.20;99.90;;;;;;3057386;19;20011;-73
2022/09/21 00:37:36;;;;;;;7.85;4.07;;;10.00;99.90;;;;;;3058525;19;20078;-75
2022/09/21 00:38:38;;;;;;;9.75;4.55;;;9.90;99.90;;;;;;3058785;19;20014;-73
2022/09/21 00:39:44;;;;;;;8.77;4.70;;;10.40;99.90;;;;;;3057932;19;20066;-74
2022/09/21 00:40:45;;;;;;;7.80;4.20;;;10.00;99.90;;;;;;3057719;19;20015;-74
2022/09/21 00:41:52;;;;;;;8.90;4.20;;;10.00;99.90;;;;;;3058585;19;20070;-74
2022/09/21 00:42:54;;;;;;;7.97;3.50;;;9.80;99.90;;;;;;3058148;19;20365;-74
2022/09/21 00:44:22;;;;;;;7.53;3.42;;;9.60;99.90;;;;;;3057577;19;20018;-74
2022/09/21 00:45:24;;;;;;;6.22;3.28;;;9.90;99.90;;;;;;3056624;19;20023;-74
2022/09/21 00:46:31;;;;;;;11.95;3.90;;;9.90;99.90;;;;;;3058446;19;20106;-74
2022/09/21 00:47:36;;;;;;;9.88;3.90;;;9.90;99.90;;;;;;3058378;19;20369;-74
2022/09/21 00:48:41;;;;;;;6.78;3.58;;;9.90;99.90;;;;;;3060793;19;20011;-74
2022/09/21 00:49:47;;;;;;;8.73;3.80;;;9.90;99.90;;;;;;3061399;19;20014;-74
2022/09/21 00:50:57;;;;;;;6.50;4.03;;;10.20;99.90;;;;;;3059389;19;20041;-74
2022/09/21 00:52:07;;;;;;;8.73;4.18;;;9.80;99.90;;;;;;3060599;19;20017;-74
2022/09/21 00:53:08;;;;;;;10.15;4.57;;;9.80;99.90;;;;;;3061306;19;20025;-74
2022/09/21 00:54:19;;;;;;;8.07;3.95;;;9.70;99.90;;;;;;3060431;19;20376;-74
2022/09/21 00:55:25;;;;;;;9.32;4.35;;;9.80;99.90;;;;;;3060687;19;20073;-74
2022/09/21 00:56:29;;;;;;;6.72;4.47;;;9.40;99.90;;;;;;3061899;19;20479;-74
2022/09/21 00:57:31;;;;;;;8.30;4.55;;;9.70;99.90;;;;;;3061281;19;20051;-74
2022/09/21 00:58:40;;;;;;;6.60;4.28;;;9.60;99.90;;;;;;3059772;19;20014;-75
2022/09/21 00:59:44;;;;;;;7.35;4.78;;;9.80;99.90;;;;;;3062603;19;20041;-74
2022/09/21 01:00:48;;;;;;;8.57;4.45;;;10.00;99.90;;;;;;3060117;19;20435;-74
2022/09/21 01:01:50;;;;;;;11.35;4.53;;;9.90;99.90;;;;;;3061244;19;20044;-75
2022/09/21 01:03:00;;;;;;;9.98;4.50;;;9.80;99.90;;;;;;3060677;19;20034;-74
2022/09/21 01:04:02;;;;;;;11.48;4.55;;;9.60;99.90;;;;;;3060647;19;20340;-75
2022/09/21 01:05:08;;;;;;;8.48;4.45;;;9.70;99.90;;;;;;3058728;19;20022;-74
2022/09/21 01:06:10;;;;;;;6.85;3.95;;;9.40;99.90;;;;;;3061072;19;20385;-74
2022/09/21 01:07:21;;;;;;;7.80;4.28;;;9.70;99.90;;;;;;3060443;19;20376;-74
2022/09/21 01:08:25;;;;;;;7.35;4.05;;;9.30;99.90;;;;;;3060961;19;20018;-74
2022/09/21 01:09:30;;;;;;;6.65;4.15;;;9.30;99.90;;;;;;3059176;19;20022;-75
2022/09/21 01:10:44;;;;;;;9.35;4.25;;;9.50;99.90;;;;;;3060442;19;20074;-73
2022/09/21 01:11:59;;;;;;;6.97;3.95;;;9.40;99.90;;;;;;3060881;19;20018;-74
2022/09/21 01:13:10;;;;;;;8.10;4.30;;;9.50;99.90;;;;;;3060213;19;20505;-74
2022/09/21 01:14:27;;;;;;;7.25;4.20;;;9.50;99.90;;;;;;3059749;19;20426;-74
2022/09/21 01:15:39;;;;;;;8.07;3.97;;;9.70;99.90;;;;;;3059948;19;20026;-74
2022/09/21 01:16:51;;;;;;;10.52;4.20;;;9.60;99.90;;;;;;3060406;19;20018;-74
2022/09/21 01:17:59;;;;;;;5.22;3.78;;;9.70;99.90;;;;;;3059434;19;20018;-74
2022/09/21 01:19:15;;;;;;;8.98;4.55;;;10.00;99.90;;;;;;3060905;19;20003;-75
2022/09/21 01:20:44;;;;;;;8.85;4.63;;;9.60;99.90;;;;;;3060681;19;20499;-75
2022/09/21 01:21:57;;;;;;;9.02;3.85;;;9.70;99.90;;;;;;3061294;19;20010;-74
2022/09/21 01:23:20;;;;;;;8.68;4.15;;;9.90;99.90;;;;;;3061828;19;20018;-74
2022/09/21 01:24:44;;;;;;;8.73;4.38;;;9.50;99.90;;;;;;3061836;19;20028;-74
2022/09/21 01:26:01;;;;;;;8.68;4.30;;;9.40;99.90;;;;;;3061189;19;20040;-74
2022/09/21 01:27:41;;;;;;;8.93;4.45;;;9.30;99.90;;;;;;3062379;19;20468;-74
2022/09/21 01:29:11;;;;;;;7.75;4.15;;;9.60;99.90;;;;;;3059982;19;20034;-74
2022/09/21 01:30:15;;;;;;;8.57;3.92;;;9.30;99.90;;;;;;3061002;19;20026;-74
2022/09/21 01:31:23;;;;;;;10.63;4.60;;;9.20;99.90;;;;;;3061890;19;20009;-75
2022/09/21 01:32:29;;;;;;;8.10;4.30;;;9.80;99.90;;;;;;3063432;19;20014;-74
2022/09/21 01:33:38;;;;;;;7.68;4.22;;;9.20;99.90;;;;;;3069238;19;20015;-74
2022/09/21 01:34:47;;;;;;;7.18;3.95;;;9.70;99.90;;;;;;3069936;19;20010;-74
2022/09/21 01:35:55;;;;;;;10.02;5.03;;;9.60;99.90;;;;;;3070192;19;20023;-73
2022/09/21 01:37:01;;;;;;;7.38;4.30;;;9.80;99.90;;;;;;3070122;19;20026;-74
2022/09/21 01:38:09;;;;;;;9.13;4.22;;;9.70;99.90;;;;;;3068101;19;20014;-74
2022/09/21 01:39:13;;;;;;;5.63;3.95;;;9.30;99.90;;;;;;3067941;19;20041;-74
2022/09/21 01:40:22;;;;;;;6.22;4.13;;;9.60;99.90;;;;;;3067720;19;19999;-76
2022/09/21 01:41:28;;;;;;;7.03;4.03;;;9.50;99.90;;;;;;3068997;19;20043;-74
2022/09/21 01:42:34;;;;;;;7.90;3.83;;;9.50;99.90;;;;;;3069855;19;20011;-74
2022/09/21 01:43:39;;;;;;;10.02;4.60;;;9.50;99.90;;;;;;3069584;19;20018;-74
2022/09/21 01:44:47;;;;;;;7.07;4.00;;;9.40;99.90;;;;;;3067874;19;20022;-73
2022/09/21 01:45:53;;;;;;;9.52;4.60;;;9.30;99.90;;;;;;3062418;19;20562;-73
2022/09/21 01:46:59;;;;;;;10.50;5.00;;;9.30;99.90;;;;;;3061074;19;20018;-73
2022/09/21 01:48:01;;;;;;;8.45;4.65;;;9.80;99.90;;;;;;3058655;19;20014;-74
2022/09/21 01:49:11;;;;;;;9.55;4.82;;;9.30;99.90;;;;;;3061609;19;20037;-74
2022/09/21 01:50:14;;;;;;;7.13;4.38;;;9.50;99.90;;;;;;3061293;19;20478;-74
2022/09/21 01:51:21;;;;;;;7.60;4.38;;;9.50;99.90;;;;;;3059148;19;20557;-75
2022/09/21 01:52:27;;;;;;;7.90;4.38;;;9.60;99.90;;;;;;3060123;19;20073;-74
2022/09/21 01:53:35;;;;;;;6.90;4.00;;;9.40;99.90;;;;;;3061164;19;20053;-74
2022/09/21 01:54:42;;;;;;;7.25;4.05;;;9.30;99.90;;;;;;3060669;19;20031;-74
2022/09/21 01:55:50;;;;;;;9.02;4.60;;;9.60;99.90;;;;;;3059772;19;20002;-75
2022/09/21 01:56:54;;;;;;;8.95;4.40;;;9.50;99.90;;;;;;3060480;19;20023;-74
2022/09/21 01:58:03;;;;;;;9.00;4.20;;;9.40;99.90;;;;;;3059872;19;20019;-74
2022/09/21 01:59:09;;;;;;;9.25;4.25;;;9.50;99.90;;;;;;3059895;19;20475;-74
2022/09/21 02:00:18;;;;;;;8.25;4.38;;;9.40;99.90;;;;;;3059801;19;20015;-74
2022/09/21 02:01:23;;;;;;;7.22;4.25;;;9.60;99.90;;;;;;3059811;19;20082;-74
2022/09/21 02:02:33;;;;;;;9.18;4.55;;;9.10;99.90;;;;;;3059742;19;20016;-74
2022/09/21 02:03:39;;;;;;;7.90;4.10;;;9.60;99.90;;;;;;3059760;19;20006;-73
2022/09/21 02:04:43;;;;;;;8.77;4.65;;;9.30;99.90;;;;;;3059768;19;20017;-74
2022/09/21 02:05:47;;;;;;;7.32;3.78;;;9.10;99.90;;;;;;3059582;19;20006;-74
2022/09/21 02:06:52;;;;;;;9.77;4.55;;;9.40;99.90;;;;;;3060983;19;20034;-74
2022/09/21 02:07:54;;;;;;;6.63;3.90;;;9.20;99.90;;;;;;3059568;19;20014;-74
2022/09/21 02:08:58;;;;;;;6.88;3.95;;;9.40;99.90;;;;;;3059651;19;20017;-74
2022/09/21 02:10:01;;;;;;;7.35;4.13;;;9.30;99.90;;;;;;3059039;19;20478;-74
2022/09/21 02:11:09;;;;;;;10.77;4.57;;;9.20;99.90;;;;;;3059714;19;20015;-74
2022/09/21 02:12:10;;;;;;;7.43;3.85;;;9.30;99.90;;;;;;3060564;19;20030;-74
2022/09/21 02:13:15;;;;;;;8.02;4.13;;;9.20;99.90;;;;;;3059058;19;20015;-74
2022/09/21 02:14:21;;;;;;;10.13;4.15;;;9.20;99.90;;;;;;3059694;19;20018;-74
2022/09/21 02:15:33;;;;;;;6.65;4.35;;;9.10;99.90;;;;;;3059881;19;20190;-74
2022/09/21 02:16:37;;;;;;;7.15;3.90;;;9.40;99.90;;;;;;3059734;19;20021;-74
2022/09/21 02:17:50;;;;;;;9.73;4.78;;;9.10;99.90;;;;;;3059143;19;20007;-74
2022/09/21 02:19:08;;;;;;;6.72;3.88;;;9.00;99.90;;;;;;3060491;19;20023;-74
2022/09/21 02:20:20;;;;;;;6.47;3.88;;;9.10;99.90;;;;;;3059393;19;20015;-74
2022/09/21 02:21:30;;;;;;;7.55;3.80;;;9.10;99.90;;;;;;3059502;19;20482;-73
2022/09/21 02:22:40;;;;;;;8.30;4.05;;;9.30;99.90;;;;;;3060302;19;20021;-74
2022/09/21 02:23:48;;;;;;;8.52;3.72;;;9.10;99.90;;;;;;3059574;19;20003;-74
2022/09/21 02:24:57;;;;;;;6.30;3.60;;;9.40;99.90;;;;;;3059663;19;20006;-74
2022/09/21 02:26:05;;;;;;;4.40;3.15;;;9.00;99.90;;;;;;3059519;19;20011;-74
2022/09/21 02:27:19;;;;;;;6.57;3.20;;;9.10;99.90;;;;;;3059800;19;20014;-75
2022/09/21 02:28:30;;;;;;;7.78;3.58;;;9.10;99.90;;;;;;3059257;19;20475;-75
2022/09/21 02:29:45;;;;;;;6.68;3.53;;;8.90;99.90;;;;;;3059772;19;20042;-74
2022/09/21 02:30:59;;;;;;;6.07;3.75;;;8.90;99.90;;;;;;3059378;19;20007;-74
2022/09/21 02:32:08;;;;;;;7.95;3.60;;;9.00;99.90;;;;;;3060618;19;20551;-73
2022/09/21 02:33:14;;;;;;;6.13;3.70;;;8.90;99.90;;;;;;3059178;19;19994;-75
2022/09/21 02:34:23;;;;;;;8.07;4.47;;;8.90;99.90;;;;;;3059160;19;20018;-75
2022/09/21 02:35:31;;;;;;;9.57;3.85;;;8.90;99.90;;;;;;3060475;19;20014;-74
2022/09/21 02:36:42;;;;;;;6.72;3.55;;;8.80;99.90;;;;;;3059146;19;20013;-74
2022/09/21 02:37:47;;;;;;;7.07;3.83;;;9.10;99.90;;;;;;3059058;19;20017;-74
2022/09/21 02:38:54;;;;;;;6.47;4.05;;;9.00;99.90;;;;;;3059092;19;20081;-75
2022/09/21 02:40:02;;;;;;;10.55;3.65;;;9.30;99.90;;;;;;3059311;19;20021;-75
2022/09/21 02:41:13;;;;;;;5.95;3.75;;;9.10;99.90;;;;;;3060933;19;20495;-75
2022/09/21 02:42:17;;;;;;;6.10;3.67;;;9.30;99.90;;;;;;3060039;19;20023;-74
2022/09/21 02:43:26;;;;;;;7.22;3.95;;;8.80;99.90;;;;;;3059049;19;20007;-75
2022/09/21 02:44:32;;;;;;;10.05;3.67;;;8.70;99.90;;;;;;3060241;19;20348;-75
2022/09/21 02:45:44;;;;;;;7.22;4.10;;;8.90;99.90;;;;;;3059173;19;20369;-76
2022/09/21 02:46:53;;;;;;;9.15;3.85;;;9.00;99.90;;;;;;3058361;19;20011;-74
2022/09/21 02:48:02;;;;;;;5.97;3.58;;;8.90;99.90;;;;;;3058542;19;20014;-74
2022/09/21 02:49:08;;;;;;;10.07;3.83;;;9.30;99.90;;;;;;3056402;19;20029;-75
2022/09/21 02:50:17;;;;;;;9.73;3.75;;;8.90;99.90;;;;;;3059307;19;20022;-74
2022/09/21 02:51:27;;;;;;;6.55;4.22;;;9.20;99.90;;;;;;3058811;19;20494;-75
2022/09/21 02:52:30;;;;;;;7.32;3.63;;;8.90;99.90;;;;;;3060159;19;20021;-75
2022/09/21 02:53:37;;;;;;;7.53;4.10;;;8.80;99.90;;;;;;3059114;19;20422;-75
2022/09/21 02:54:42;;;;;;;8.68;3.40;;;8.80;99.90;;;;;;3058859;19;20021;-75
2022/09/21 02:55:50;;;;;;;7.80;3.58;;;8.90;99.90;;;;;;3060364;19;20025;-74
2022/09/21 02:56:54;;;;;;;7.07;3.65;;;8.90;99.90;;;;;;3058647;19;20066;-74
2022/09/21 02:57:59;;;;;;;5.53;3.42;;;9.00;99.90;;;;;;3059210;19;20010;-75
2022/09/21 02:59:03;;;;;;;8.57;3.63;;;9.00;99.90;;;;;;3058893;19;20007;-75
2022/09/21 03:00:08;;;;;;;9.05;3.78;;;8.90;99.90;;;;;;3058790;19;19998;-74
2022/09/21 03:01:11;;;;;;;8.65;3.63;;;9.00;99.90;;;;;;3058597;19;20019;-74
2022/09/21 03:02:18;;;;;;;6.53;3.63;;;8.80;99.90;;;;;;3058908;19;20113;-75
2022/09/21 03:03:22;;;;;;;7.00;4.03;;;9.20;99.90;;;;;;3057881;19;20025;-75
2022/09/21 03:04:27;;;;;;;9.57;3.50;;;8.80;99.90;;;;;;3058083;19;20014;-75
2022/09/21 03:05:28;;;;;;;8.68;3.97;;;9.10;99.90;;;;;;3058532;19;20470;-75
2022/09/21 03:06:33;;;;;;;6.45;3.78;;;8.80;99.90;;;;;;3059061;19;20027;-75
2022/09/21 03:07:34;;;;;;;7.35;3.58;;;8.80;99.90;;;;;;3056894;19;20025;-74
2022/09/21 03:08:38;;;;;;;8.20;4.10;;;9.20;99.90;;;;;;3058829;19;20006;-74
2022/09/21 03:09:39;;;;;;;8.40;3.83;;;8.70;99.90;;;;;;3058695;19;20102;-74
2022/09/21 03:10:43;;;;;;;9.10;3.85;;;8.90;99.90;;;;;;3057789;19;20002;-76
2022/09/21 03:11:44;;;;;;;6.30;3.90;;;8.90;99.90;;;;;;3059385;19;20007;-75
2022/09/21 03:12:48;;;;;;;7.97;4.20;;;8.90;99.90;;;;;;3058742;19;19998;-75
2022/09/21 03:13:49;;;;;;;5.70;3.70;;;8.70;99.90;;;;;;3057832;19;19999;-75
2022/09/21 03:14:54;;;;;;;9.48;3.63;;;8.70;99.90;;;;;;3052429;19;20406;-75
2022/09/21 03:16:00;;;;;;;7.53;3.72;;;8.60;99.90;;;;;;3057958;19;20098;-76
2022/09/21 03:17:04;;;;;;;7.25;4.03;;;8.60;99.90;;;;;;3058927;19;20039;-75
2022/09/21 03:18:10;;;;;;;8.48;3.85;;;8.80;99.90;;;;;;3058780;19;20014;-74
2022/09/21 03:19:15;;;;;;;8.15;3.80;;;8.70;99.90;;;;;;3058647;19;20123;-75
2022/09/21 03:20:16;;;;;;;6.47;3.75;;;8.60;99.90;;;;;;3058105;19;20031;-75
2022/09/21 03:21:20;;;;;;;8.80;4.25;;;8.70;99.90;;;;;;3058752;19;20018;-74
2022/09/21 03:22:22;;;;;;;8.00;3.88;;;8.80;99.90;;;;;;3059293;19;20031;-74
2022/09/21 03:23:29;;;;;;;6.68;4.00;;;8.90;99.90;;;;;;3058549;19;20027;-75
2022/09/21 03:25:55;;;;;;;8.43;4.10;;;;;;;;;;3058567;19;20033;-75
2022/09/21 03:26:56;;;;;;;6.50;3.60;;;9.00;99.90;;;;;;3058391;19;20019;-75
2022/09/21 03:28:01;;;;;;;7.38;3.50;;;;;;;;;;3058542;19;20010;-75
2022/09/21 03:29:03;;;;;;;7.88;3.88;;;8.80;99.90;;;;;;3059282;19;20023;-75
2022/09/21 03:30:07;;;;;;;;;;;8.70;99.90;;;;;;3057414;19;20049;-75
2022/09/21 03:31:08;;;;;;;7.05;3.78;;;;;;;;;;3055559;19;19941;-75
2022/09/21 03:32:13;;;;;;;6.82;3.40;;;8.70;99.90;;;;;;3055996;19;20038;-75
2022/09/21 03:33:18;;;;;;;7.63;3.67;;;8.70;99.90;;;;;;3058085;19;20015;-74
2022/09/21 03:34:22;;;;;;;7.90;3.95;;;8.60;99.90;;;;;;3058117;19;20021;-75
2022/09/21 03:35:25;;;;;;;8.07;4.25;;;8.70;99.90;;;;;;3056783;19;20078;-74
2022/09/21 03:36:29;;;;;;;6.88;3.47;;;;;;;;;;3055347;19;20010;-74
2022/09/21 03:37:30;;;;;;;7.15;3.63;;;8.80;99.90;;;;;;3055290;19;20018;-74
2022/09/21 03:38:35;;;;;;;9.43;4.45;;;8.40;99.90;;;;;;3057140;19;20015;-74
2022/09/21 03:39:36;;;;;;;6.45;4.00;;;8.50;99.90;;;;;;3057847;19;20018;-74
2022/09/21 03:40:40;;;;;;;7.95;3.92;;;8.50;99.90;;;;;;3057601;19;20002;-74
2022/09/21 03:41:41;;;;;;;10.68;3.90;;;8.50;99.90;;;;;;3059328;19;20014;-74
2022/09/21 03:42:45;;;;;;;8.07;3.75;;;8.60;99.90;;;;;;3058099;19;20025;-74
2022/09/21 03:43:47;;;;;;;9.82;4.13;;;8.60;99.90;;;;;;3057749;19;20408;-75
2022/09/21 03:44:50;;;;;;;7.15;4.10;;;8.50;99.90;;;;;;3058242;19;20343;-74
2022/09/21 03:45:52;;;;;;;6.20;3.78;;;8.70;99.90;;;;;;3057575;19;20020;-74
2022/09/21 03:46:57;;;;;;;;;;;8.70;99.90;;;;;;3056588;19;20062;-74
2022/09/21 03:48:00;;;;;;;7.35;3.58;;;8.70;99.90;;;;;;3057760;19;20542;-74
2022/09/21 03:49:06;;;;;;;6.85;3.78;;;8.50;99.90;;;;;;3058939;19;20078;-74
2022/09/21 03:50:09;;;;;;;5.28;3.58;;;8.60;99.90;;;;;;3057397;19;20370;-74
2022/09/21 03:51:13;;;;;;;5.97;3.83;;;;;;;;;;3058432;19;19999;-74
2022/09/21 03:52:14;;;;;;;6.82;3.65;;;8.80;99.90;;;;;;3055486;19;20352;-74
2022/09/21 03:53:18;;;;;;;4.95;3.47;;;8.40;99.90;;;;;;3057376;19;20011;-76
2022/09/21 03:54:20;;;;;;;6.25;3.75;;;8.50;99.90;;;;;;3059242;19;20011;-75
2022/09/21 03:55:24;;;;;;;7.05;3.95;;;8.50;99.90;;;;;;3059138;19;20387;-74
2022/09/21 03:56:25;;;;;;;7.43;3.75;;;8.20;99.90;;;;;;3058096;19;20037;-73
2022/09/21 03:57:29;;;;;;;8.05;3.35;;;8.50;99.90;;;;;;3055672;19;20035;-74
2022/09/21 03:58:30;;;;;;;7.78;3.90;;;8.70;99.90;;;;;;3057644;19;20366;-74
2022/09/21 03:59:34;;;;;;;4.68;3.42;;;8.60;99.90;;;;;;3058594;19;20031;-74
2022/09/21 04:00:37;;;;;;;6.20;3.58;;;8.40;99.90;;;;;;3058211;19;20360;-74
2022/09/21 04:01:41;;;;;;;8.02;3.80;;;8.60;99.90;;;;;;3057517;19;20014;-74
2022/09/21 04:02:42;;;;;;;5.68;3.38;;;8.50;99.90;;;;;;3058726;19;20015;-74
2022/09/21 04:03:46;;;;;;;5.43;3.60;;;8.50;99.90;;;;;;3058311;19;20022;-74
2022/09/21 04:04:50;;;;;;;6.75;3.40;;;8.70;99.90;;;;;;3057156;19;20349;-74
2022/09/21 04:05:54;;;;;;;6.40;3.45;;;;;;;;;;3057775;19;20380;-73
2022/09/21 04:06:55;;;;;;;6.28;3.85;;;8.40;99.90;;;;;;3055008;19;20014;-73
2022/09/21 04:08:00;;;;;;;6.00;3.47;;;8.50;99.90;;;;;;3059669;19;20014;-75
2022/09/21 04:09:02;;;;;;;5.32;3.33;;;8.20;99.90;;;;;;3059157;19;20048;-75
2022/09/21 04:10:08;;;;;;;5.97;3.50;;;8.60;99.90;;;;;;3057033;19;20037;-74
2022/09/21 04:11:10;;;;;;;6.10;3.78;;;8.60;99.90;;;;;;3057414;19;20484;-74
2022/09/21 04:12:14;;;;;;;;;;;8.60;99.90;;;;;;3060054;19;20014;-74
2022/09/21 04:13:15;;;;;;;6.82;3.20;;;;;;;;;;3059118;19;19918;-74
2022/09/21 04:14:21;;;;;;;5.85;3.67;;;8.50;99.90;;;;;;3057742;19;20003;-74
2022/09/21 04:15:22;;;;;;;8.27;3.65;;;8.20;99.90;;;;;;3057697;19;20006;-74
2022/09/21 04:16:27;;;;;;;7.72;3.60;;;8.30;99.90;;;;;;3058022;19;20006;-74
2022/09/21 04:17:28;;;;;;;7.78;4.00;;;8.10;99.90;;;;;;3058233;19;20018;-75
2022/09/21 04:18:32;;;;;;;10.65;4.20;;;;;;;;;;3058218;19;20029;-75
2022/09/21 04:19:34;;;;;;;8.07;3.70;;;8.30;99.90;;;;;;3058060;19;20018;-74
2022/09/21 04:20:40;;;;;;;7.88;3.65;;;8.50;99.90;;;;;;3057954;19;20011;-74
2022/09/21 04:21:42;;;;;;;6.30;3.65;;;8.70;99.90;;;;;;3058111;19;20019;-74
2022/09/21 04:22:46;;;;;;;6.53;3.67;;;8.40;99.90;;;;;;3059541;19;20371;-74
2022/09/21 04:23:48;;;;;;;8.90;3.83;;;8.30;99.90;;;;;;3061123;19;20014;-74
2022/09/21 04:24:52;;;;;;;8.40;3.67;;;8.40;99.90;;;;;;3061505;19;20014;-75
2022/09/21 04:25:54;;;;;;;7.43;3.65;;;8.30;99.90;;;;;;3060843;19;20030;-75
2022/09/21 04:26:58;;;;;;;8.73;3.88;;;8.30;99.90;;;;;;3060012;19;20470;-76
2022/09/21 04:28:00;;;;;;;6.90;3.60;;;8.40;99.90;;;;;;3060952;19;20012;-75
2022/09/21 04:29:05;;;;;;;;;;;8.40;99.90;;;;;;3061482;19;20454;-76
2022/09/21 04:30:09;;;;;;;6.15;3.35;;;8.10;99.90;;;;;;3061107;19;19970;-74
2022/09/21 04:31:12;;;;;;;8.60;3.80;;;8.20;99.90;;;;;;3060858;19;20008;-74
2022/09/21 04:32:16;;;;;;;7.28;3.90;;;8.30;99.90;;;;;;3062102;19;20022;-74
2022/09/21 04:33:18;;;;;;;6.53;3.55;;;8.20;99.90;;;;;;3060641;19;20023;-74
2022/09/21 04:34:22;;;;;;;5.32;3.35;;;8.20;99.90;;;;;;3062373;19;20030;-74
2022/09/21 04:35:26;;;;;;;7.45;3.80;;;8.30;99.90;;;;;;3060812;19;20014;-78
2022/09/21 04:36:31;;;;;;;5.78;3.60;;;8.20;99.90;;;;;;3061024;19;20015;-74
2022/09/21 04:37:35;;;;;;;5.50;3.75;;;8.60;99.90;;;;;;3060247;19;20028;-74
2022/09/21 04:38:37;;;;;;;6.13;3.47;;;8.10;99.90;;;;;;3061499;19;20011;-74
2022/09/21 04:39:41;;;;;;;5.32;3.42;;;8.40;99.90;;;;;;3060572;19;20376;-74
2022/09/21 04:40:42;;;;;;;9.52;3.80;;;8.30;99.90;;;;;;3060858;19;20007;-73
2022/09/21 04:41:46;;;;;;;5.65;4.00;;;8.20;99.90;;;;;;3060433;19;20021;-74
2022/09/21 04:42:51;;;;;;;7.28;4.15;;;8.40;99.90;;;;;;3060359;19;20021;-74
2022/09/21 04:43:55;;;;;;;9.95;3.72;;;8.30;99.90;;;;;;3061425;19;20015;-74
2022/09/21 04:44:56;;;;;;;9.20;3.42;;;;;;;;;;3060199;19;20427;-73
2022/09/21 04:46:00;;;;;;;10.18;3.80;;;8.30;99.90;;;;;;3061447;19;20022;-74
2022/09/21 04:47:01;;;;;;;6.85;3.70;;;;;;;;;;3058511;19;20011;-74
2022/09/21 04:48:06;;;;;;;6.75;3.70;;;8.40;99.90;;;;;;3059630;19;19999;-73
2022/09/21 04:49:09;;;;;;;8.25;3.20;;;8.40;99.90;;;;;;3060682;19;20011;-73
2022/09/21 04:50:13;;;;;;;8.13;3.60;;;8.30;99.90;;;;;;3059024;19;20010;-74
2022/09/21 04:51:16;;;;;;;7.93;3.72;;;8.30;99.90;;;;;;3060620;19;20006;-74
2022/09/21 04:52:22;;;;;;;9.70;3.60;;;8.40;99.90;;;;;;3060868;19;20018;-74
2022/09/21 04:53:26;;;;;;;9.13;3.78;;;8.00;99.90;;;;;;3060111;19;20010;-73
2022/09/21 04:54:28;;;;;;;8.23;4.15;;;8.40;99.90;;;;;;3061027;19;20002;-74
2022/09/21 04:55:32;;;;;;;5.28;3.38;;;8.30;99.90;;;;;;3061569;19;20074;-73
2022/09/21 04:56:33;;;;;;;7.70;3.70;;;8.50;99.90;;;;;;3059422;19;20018;-74
2022/09/21 04:57:37;;;;;;;6.82;3.38;;;8.50;99.90;;;;;;3057803;19;20018;-74
2022/09/21 04:58:38;;;;;;;7.68;3.83;;;8.20;99.90;;;;;;3061585;19;20014;-74
2022/09/21 04:59:42;;;;;;;6.60;3.55;;;8.30;99.90;;;;;;3061169;19;20017;-73
2022/09/21 05:00:43;;;;;;;8.80;3.58;;;8.30;99.90;;;;;;3058646;19;20023;-74
2022/09/21 05:01:47;;;;;;;6.22;3.78;;;8.30;99.90;;;;;;3062102;19;20371;-74
2022/09/21 05:02:50;;;;;;;5.85;3.67;;;8.10;99.90;;;;;;3060250;19;20316;-73
2022/09/21 05:03:54;;;;;;;6.93;3.83;;;8.20;99.90;;;;;;3060626;19;20026;-73
2022/09/21 05:04:56;;;;;;;7.03;3.65;;;8.20;99.90;;;;;;3061633;19;20033;-74
2022/09/21 05:06:00;;;;;;;8.13;3.90;;;8.60;99.90;;;;;;3060202;19;20018;-73
2022/09/21 05:07:01;;;;;;;6.35;3.70;;;9.30;99.90;;;;;;3058501;19;20036;-75
2022/09/21 05:08:08;;;;;;;6.30;3.83;;;8.50;99.90;;;;;;3061697;19;20014;-74
2022/09/21 05:10:26;;;;;;;8.10;3.42;;;8.40;99.90;;;;;;3060985;19;20041;-73
2022/09/21 05:11:28;;;;;;;6.35;3.20;;;8.20;99.90;;;;;;3059008;19;20028;-74
2022/09/21 05:12:31;;;;;;;;;;;8.30;99.90;;;;;;3061139;19;20010;-73
2022/09/21 05:13:33;;;;;;;6.80;3.40;;;8.50;99.90;;;;;;3060342;19;20296;-73
2022/09/21 05:14:38;;;;;;;10.32;3.83;;;8.20;99.90;;;;;;3060054;19;20014;-73
2022/09/21 05:15:39;;;;;;;8.13;3.95;;;8.30;99.90;;;;;;3060195;19;20006;-74
2022/09/21 05:16:43;;;;;;;6.28;3.70;;;8.00;99.90;;;;;;3060710;19;20014;-74
2022/09/21 05:17:45;;;;;;;9.07;3.90;;;8.30;99.90;;;;;;3060388;19;20014;-74
2022/09/21 05:18:49;;;;;;;7.47;3.92;;;8.40;99.90;;;;;;3060508;19;20010;-74
2022/09/21 05:19:54;;;;;;;11.23;3.78;;;8.30;99.90;;;;;;3060183;19;20023;-75
2022/09/21 05:20:57;;;;;;;9.00;3.70;;;7.90;99.90;;;;;;3060431;19;20028;-74
2022/09/21 05:22:00;;;;;;;5.55;3.30;;;8.30;99.90;;;;;;3060916;19;20006;-75
2022/09/21 05:23:02;;;;;;;7.53;4.00;;;8.20;99.90;;;;;;3059940;19;20030;-74
2022/09/21 05:24:08;;;;;;;4.93;3.50;;;8.30;99.90;;;;;;3060155;19;20006;-74
2022/09/21 05:25:10;;;;;;;9.35;4.03;;;;;;;;;;3061243;19;20010;-75
2022/09/21 05:26:14;;;;;;;5.20;3.45;;;8.30;99.90;;;;;;3060359;19;20041;-74
2022/09/21 05:27:18;;;;;;;5.88;3.60;;;8.20;99.90;;;;;;3059891;19;20022;-74
2022/09/21 05:28:20;;;;;;;10.20;4.43;;;8.20;99.90;;;;;;3060196;19;20031;-75
2022/09/21 05:29:24;;;;;;;10.73;5.35;;;8.20;99.90;;;;;;3060339;19;20033;-74
2022/09/21 05:30:26;;;;;;;8.45;4.30;;;8.10;99.90;;;;;;3060458;19;20446;-73
2022/09/21 05:31:41;;;;;;;9.07;4.40;;;8.20;99.90;;;;;;3059162;19;20003;-74
2022/09/21 05:32:47;;;;;;;8.07;4.30;;;8.40;99.90;;;;;;3060137;19;20030;-75
2022/09/21 05:33:55;;;;;;;7.88;3.72;;;8.40;99.90;;;;;;3058728;19;20015;-73
2022/09/21 05:35:08;;;;;;;7.57;4.00;;;8.10;99.90;;;;;;3058729;19;20010;-73
2022/09/21 05:36:23;;;;;;;8.10;4.07;;;8.20;99.90;;;;;;3060172;19;20014;-74
2022/09/21 05:37:42;;;;;;;8.30;4.00;;;8.30;99.90;;;;;;3060549;19;20014;-74
2022/09/21 05:38:47;;;;;;;5.90;3.72;;;8.10;99.90;;;;;;3060322;19;20031;-74
2022/09/21 05:39:51;;;;;;;6.15;3.78;;;8.20;99.90;;;;;;3059360;19;20463;-74
2022/09/21 05:40:56;;;;;;;6.82;3.63;;;8.00;99.90;;;;;;3060122;19;20018;-74
2022/09/21 05:41:57;;;;;;;12.48;4.15;;;8.10;99.90;;;;;;3060068;19;20010;-74
2022/09/21 05:43:02;;;;;;;;;;;8.30;99.90;;;;;;3060222;19;20021;-74
2022/09/21 05:44:04;;;;;;;7.10;3.92;;;8.30;99.90;;;;;;3059789;19;19961;-74
2022/09/21 05:45:12;;;;;;;8.32;3.80;;;8.10;99.90;;;;;;3059580;19;20391;-74
2022/09/21 05:46:19;;;;;;;8.05;4.05;;;8.50;99.90;;;;;;3059228;19;20344;-75
2022/09/21 05:47:28;;;;;;;7.90;3.80;;;8.10;99.90;;;;;;3059011;19;20006;-74
2022/09/21 05:48:38;;;;;;;9.18;3.60;;;8.10;99.90;;;;;;3059953;19;20015;-73
2022/09/21 05:49:51;;;;;;;6.95;3.80;;;8.20;99.90;;;;;;3058534;19;20026;-75